createdAt,value
2018-11-21T00:00:15.916Z,-1.90
2018-11-21T00:02:44.070Z,-2.00
2018-11-21T00:05:12.202Z,-2.00
2018-11-21T00:07:40.286Z,-2.10
2018-11-21T00:10:10.094Z,-2.10
2018-11-21T00:12:38.770Z,-2.10
2018-11-21T00:15:08.474Z,-2.10
2018-11-21T00:17:36.602Z,-2.10
2018-11-21T00:20:05.552Z,-2.10
2018-11-21T00:22:33.678Z,-2.00
2018-11-21T00:25:01.837Z,-1.90
2018-11-21T00:27:29.935Z,-1.90
2018-11-21T00:29:58.265Z,-2.00
2018-11-21T00:32:26.963Z,-2.00
2018-11-21T00:34:55.701Z,-2.00
2018-11-21T00:37:24.571Z,-2.00
2018-11-21T00:39:53.369Z,-2.00
2018-11-21T00:42:21.780Z,-2.10
2018-11-21T00:44:49.885Z,-2.10
2018-11-21T00:47:18.412Z,-2.10
2018-11-21T00:49:46.580Z,-2.00
2018-11-21T00:52:14.682Z,-1.80
2018-11-21T00:54:42.790Z,-1.70
2018-11-21T00:57:10.929Z,-1.60
2018-11-21T00:59:39.031Z,-1.60
2018-11-21T01:02:07.166Z,-1.70
2018-11-21T01:04:35.278Z,-1.80
2018-11-21T01:07:03.509Z,-1.90
2018-11-21T01:09:31.649Z,-1.90
2018-11-21T01:11:59.757Z,-1.90
2018-11-21T01:14:27.875Z,-1.90
2018-11-21T01:16:56.013Z,-1.90
2018-11-21T01:19:24.396Z,-1.90
2018-11-21T01:21:52.493Z,-1.90
2018-11-21T01:24:20.886Z,-2.00
2018-11-21T01:26:49.059Z,-2.00
2018-11-21T01:29:17.115Z,-2.00
2018-11-21T01:31:45.191Z,-1.90
2018-11-21T01:34:13.504Z,-1.80
2018-11-21T01:36:41.580Z,-1.80
2018-11-21T01:39:10.576Z,-1.80
2018-11-21T01:41:39.192Z,-1.90
2018-11-21T01:44:07.863Z,-2.00
2018-11-21T01:46:36.442Z,-2.00
2018-11-21T01:49:04.723Z,-2.10
2018-11-21T01:51:33.209Z,-2.00
2018-11-21T01:54:01.303Z,-2.00
2018-11-21T01:56:29.423Z,-2.00
2018-11-21T01:58:57.507Z,-1.90
2018-11-21T02:01:25.588Z,-2.00
2018-11-21T02:03:53.712Z,-2.10
2018-11-21T02:06:21.766Z,-2.10
2018-11-21T02:08:49.839Z,-2.00
2018-11-21T02:11:17.974Z,-1.90
2018-11-21T02:13:46.038Z,-1.70
2018-11-21T02:16:14.132Z,-1.60
2018-11-21T02:18:42.267Z,-1.60
2018-11-21T02:21:10.390Z,-1.50
2018-11-21T02:23:38.644Z,-1.50
2018-11-21T02:26:06.744Z,-1.50
2018-11-21T02:28:34.873Z,-1.60
2018-11-21T02:31:03.012Z,-1.80
2018-11-21T02:33:31.137Z,-2.00
2018-11-21T02:35:59.257Z,-2.00
2018-11-21T02:38:27.360Z,-2.10
2018-11-21T02:40:55.516Z,-2.10
2018-11-21T02:43:23.635Z,-2.20
2018-11-21T02:45:51.765Z,-2.10
2018-11-21T02:48:19.911Z,-2.10
2018-11-21T02:50:48.016Z,-2.10
2018-11-21T02:53:16.124Z,-2.00
2018-11-21T02:55:44.233Z,-2.00
2018-11-21T02:58:12.592Z,-2.00
2018-11-21T03:00:40.732Z,-2.00
2018-11-21T03:03:08.927Z,-1.90
2018-11-21T03:05:37.009Z,-1.80
2018-11-21T03:08:05.257Z,-1.80
2018-11-21T03:10:33.398Z,-1.80
2018-11-21T03:13:01.514Z,-1.70
2018-11-21T03:15:29.617Z,-1.70
2018-11-21T03:17:57.719Z,-1.80
2018-11-21T03:20:25.841Z,-1.90
2018-11-21T03:22:54.229Z,-1.90
2018-11-21T03:25:22.356Z,-2.00
2018-11-21T03:27:50.469Z,-2.00
2018-11-21T03:30:18.580Z,-2.10
2018-11-21T03:32:47.000Z,-2.10
2018-11-21T03:35:15.116Z,-2.20
2018-11-21T03:37:43.285Z,-2.20
2018-11-21T03:40:12.260Z,-2.10
2018-11-21T03:42:40.671Z,-2.10
2018-11-21T03:45:09.810Z,-2.00
2018-11-21T03:47:37.901Z,-2.00
2018-11-21T03:50:08.171Z,-2.10
2018-11-21T03:52:36.256Z,-2.00
2018-11-21T03:55:04.579Z,-1.80
2018-11-21T03:57:32.694Z,-1.80
2018-11-21T04:00:00.906Z,-1.80
2018-11-21T04:02:29.047Z,-1.90
2018-11-21T04:04:57.183Z,-1.80
2018-11-21T04:07:25.325Z,-1.90
2018-11-21T04:09:53.474Z,-1.90
2018-11-21T04:12:21.689Z,-1.80
2018-11-21T04:14:50.072Z,-1.80
2018-11-21T04:17:18.303Z,-1.90
2018-11-21T04:19:46.531Z,-2.00
2018-11-21T04:22:14.671Z,-2.10
2018-11-21T04:24:42.812Z,-2.00
2018-11-21T04:27:10.959Z,-2.10
2018-11-21T04:29:39.359Z,-2.10
2018-11-21T04:32:07.487Z,-2.00
2018-11-21T04:34:36.215Z,-2.10
2018-11-21T04:37:04.799Z,-2.00
2018-11-21T04:39:32.926Z,-1.90
2018-11-21T04:42:01.582Z,-1.80
2018-11-21T04:44:29.961Z,-1.90
2018-11-21T04:46:58.399Z,-2.00
2018-11-21T04:49:26.827Z,-2.00
2018-11-21T04:51:54.957Z,-1.90
2018-11-21T04:54:23.110Z,-2.10
2018-11-21T04:56:51.250Z,-2.20
2018-11-21T04:59:19.402Z,-2.20
2018-11-21T05:01:48.409Z,-2.00
2018-11-21T05:04:16.551Z,-1.90
2018-11-21T05:06:44.683Z,-2.00
2018-11-21T05:09:12.908Z,-2.10
2018-11-21T05:11:40.986Z,-2.10
2018-11-21T05:14:09.097Z,-2.20
2018-11-21T05:16:37.135Z,-2.20
2018-11-21T05:19:05.477Z,-2.30
2018-11-21T05:21:33.552Z,-1.90
2018-11-21T05:24:01.625Z,-1.30
2018-11-21T05:26:29.716Z,-1.60
2018-11-21T05:28:57.791Z,-1.80
2018-11-21T05:31:25.862Z,-2.20
2018-11-21T05:33:53.949Z,-2.30
2018-11-21T05:36:22.036Z,-2.50
2018-11-21T05:38:50.105Z,-2.60
2018-11-21T05:41:18.189Z,-2.70
2018-11-21T05:43:46.278Z,-2.60
2018-11-21T05:46:14.414Z,-2.60
2018-11-21T05:48:42.551Z,-2.60
2018-11-21T05:51:10.634Z,-2.60
2018-11-21T05:53:38.714Z,-2.60
2018-11-21T05:56:06.817Z,-2.70
2018-11-21T05:58:34.906Z,-2.70
2018-11-21T06:01:03.026Z,-2.70
2018-11-21T06:03:31.633Z,-2.80
2018-11-21T06:05:59.686Z,-2.80
2018-11-21T06:08:28.029Z,-2.70
2018-11-21T06:10:56.102Z,-2.80
2018-11-21T06:13:24.434Z,-2.80
2018-11-21T06:15:52.806Z,-2.80
2018-11-21T06:18:20.865Z,-2.80
2018-11-21T06:20:48.969Z,-2.80
2018-11-21T06:23:17.054Z,-2.80
2018-11-21T06:25:45.132Z,-2.70
2018-11-21T06:28:13.224Z,-2.80
2018-11-21T06:30:41.344Z,-2.80
2018-11-21T06:33:09.726Z,-2.80
2018-11-21T06:35:37.808Z,-2.90
2018-11-21T06:38:06.164Z,-3.00
2018-11-21T06:40:34.256Z,-3.10
2018-11-21T06:43:02.364Z,-3.10
2018-11-21T06:45:30.442Z,-3.00
2018-11-21T06:47:58.533Z,-3.00
2018-11-21T06:50:26.876Z,-2.90
2018-11-21T06:52:56.127Z,-2.80
2018-11-21T06:55:24.824Z,-2.80
2018-11-21T06:57:53.166Z,-2.70
2018-11-21T07:00:21.285Z,-2.80
2018-11-21T07:02:49.369Z,-2.90
2018-11-21T07:05:17.453Z,-2.90
2018-11-21T07:07:45.580Z,-2.90
2018-11-21T07:10:14.648Z,-2.90
2018-11-21T07:12:43.352Z,-3.00
2018-11-21T07:15:11.415Z,-2.90
2018-11-21T07:17:39.834Z,-2.90
2018-11-21T07:20:09.813Z,-2.90
2018-11-21T07:22:37.905Z,-2.90
2018-11-21T07:25:12.034Z,-2.80
2018-11-21T07:27:40.185Z,-2.70
2018-11-21T07:30:10.613Z,-2.60
2018-11-21T07:32:38.686Z,-2.40
2018-11-21T07:35:07.177Z,-2.10
2018-11-21T07:37:35.245Z,-1.90
2018-11-21T07:40:03.615Z,-1.80
2018-11-21T07:42:31.726Z,-1.60
2018-11-21T07:44:59.837Z,-1.50
2018-11-21T07:47:27.947Z,-1.40
2018-11-21T07:49:56.121Z,-1.30
2018-11-21T07:52:24.214Z,-1.10
2018-11-21T07:54:52.317Z,-1.10
2018-11-21T07:57:40.302Z,-1.00
2018-11-21T08:00:48.346Z,-0.90
2018-11-21T08:03:16.721Z,-0.70
2018-11-21T08:05:47.394Z,-0.50
2018-11-21T08:08:30.318Z,-0.40
2018-11-21T08:11:13.756Z,-0.30
2018-11-21T08:13:52.218Z,-0.20
2018-11-21T08:16:39.523Z,-0.10
2018-11-21T08:19:41.154Z,-0.10
2018-11-21T08:22:26.944Z,0.00
2018-11-21T08:25:26.256Z,0.00
2018-11-21T08:28:10.708Z,0.10
2018-11-21T08:30:39.037Z,0.20
2018-11-21T08:33:07.133Z,0.40
2018-11-21T08:35:35.211Z,0.40
2018-11-21T08:38:03.328Z,0.60
2018-11-21T08:40:31.419Z,0.70
2018-11-21T08:42:59.516Z,0.80
2018-11-21T08:45:27.598Z,0.80
2018-11-21T08:47:55.694Z,0.90
2018-11-21T08:50:23.788Z,1.00
2018-11-21T08:52:51.893Z,1.00
2018-11-21T08:55:19.991Z,1.00
2018-11-21T08:57:48.071Z,1.10
2018-11-21T09:00:16.181Z,1.10
2018-11-21T09:02:44.279Z,1.20
2018-11-21T09:05:12.734Z,1.20
2018-11-21T09:07:41.729Z,1.30
2018-11-21T09:10:11.795Z,1.20
2018-11-21T09:12:40.116Z,1.30
2018-11-21T09:15:10.083Z,1.30
2018-11-21T09:17:38.188Z,1.50
2018-11-21T09:20:07.637Z,1.40
2018-11-21T09:22:35.951Z,1.40
2018-11-21T09:25:05.101Z,1.40
2018-11-21T09:27:33.667Z,1.50
2018-11-21T09:30:01.877Z,1.60
2018-11-21T09:32:30.169Z,1.60
2018-11-21T09:34:58.272Z,1.50
2018-11-21T09:37:26.374Z,1.50
2018-11-21T09:39:54.486Z,1.50
2018-11-21T09:42:22.730Z,1.50
2018-11-21T09:44:51.072Z,1.50
2018-11-21T09:47:19.160Z,1.50
2018-11-21T09:49:47.244Z,1.60
2018-11-21T09:52:15.553Z,1.60
2018-11-21T09:54:43.643Z,1.70
2018-11-21T09:57:11.830Z,1.80
2018-11-21T09:59:39.922Z,1.70
2018-11-21T10:02:44.129Z,1.70
2018-11-21T10:05:12.211Z,1.80
2018-11-21T10:07:45.510Z,1.80
2018-11-21T10:10:13.592Z,1.80
2018-11-21T10:12:41.668Z,1.70
2018-11-21T10:15:09.772Z,1.80
2018-11-21T10:17:37.847Z,1.80
2018-11-21T10:20:06.561Z,1.90
2018-11-21T10:22:34.656Z,1.90
2018-11-21T10:25:02.757Z,1.90
2018-11-21T10:27:30.829Z,1.80
2018-11-21T10:29:58.928Z,1.80
2018-11-21T10:32:27.009Z,1.90
2018-11-21T10:34:55.105Z,1.90
2018-11-21T10:37:23.217Z,1.90
2018-11-21T10:39:51.300Z,2.00
2018-11-21T10:42:19.406Z,1.90
2018-11-21T10:44:47.508Z,2.00
2018-11-21T10:47:15.643Z,2.00
2018-11-21T10:49:43.781Z,2.00
2018-11-21T10:52:11.891Z,2.00
2018-11-21T10:54:39.957Z,2.00
2018-11-21T10:57:08.032Z,1.80
2018-11-21T10:59:36.131Z,1.80
2018-11-21T11:02:16.265Z,1.70
2018-11-21T11:04:57.174Z,1.60
2018-11-21T11:08:00.315Z,1.70
2018-11-21T11:10:45.948Z,1.80
2018-11-21T11:13:43.497Z,1.90
2018-11-21T11:16:45.761Z,2.00
2018-11-21T11:19:41.745Z,2.10
2018-11-21T11:22:27.522Z,2.20
2018-11-21T11:25:13.052Z,2.20
2018-11-21T11:27:59.564Z,2.30
2018-11-21T11:30:52.749Z,2.00
2018-11-21T11:33:38.260Z,1.90
2018-11-21T11:36:27.293Z,1.80
2018-11-21T11:39:24.050Z,1.80
2018-11-21T11:42:09.776Z,1.90
2018-11-21T11:44:58.197Z,2.00
2018-11-21T11:47:44.124Z,2.10
2018-11-21T11:50:21.339Z,2.10
2018-11-21T11:53:06.848Z,2.00
2018-11-21T11:55:58.407Z,2.10
2018-11-21T11:58:44.283Z,2.00
2018-11-21T12:01:40.314Z,1.80
2018-11-21T12:04:19.921Z,1.90
2018-11-21T12:07:05.491Z,2.00
2018-11-21T12:09:51.382Z,1.90
2018-11-21T12:12:40.112Z,2.00
2018-11-21T12:15:21.837Z,2.10
2018-11-21T12:18:07.598Z,2.00
2018-11-21T12:20:57.661Z,1.90
2018-11-21T12:24:02.712Z,1.80
2018-11-21T12:26:43.109Z,1.80
2018-11-21T12:29:28.679Z,1.90
2018-11-21T12:32:15.953Z,1.80
2018-11-21T12:35:08.788Z,1.60
2018-11-21T12:37:55.135Z,1.80
2018-11-21T12:40:42.647Z,2.00
2018-11-21T12:43:26.996Z,2.10
2018-11-21T12:46:12.577Z,2.20
2018-11-21T12:49:14.681Z,2.20
2018-11-21T12:52:11.095Z,2.20
2018-11-21T12:55:01.534Z,2.10
2018-11-21T12:57:41.244Z,2.00
2018-11-21T13:00:37.458Z,1.90
2018-11-21T13:03:10.959Z,2.10
2018-11-21T13:06:16.257Z,2.00
2018-11-21T13:08:53.656Z,1.90
2018-11-21T13:11:36.514Z,1.80
2018-11-21T13:14:25.629Z,1.70
2018-11-21T13:17:21.425Z,1.80
2018-11-21T13:20:07.221Z,1.90
2018-11-21T13:22:52.873Z,2.10
2018-11-21T13:25:38.823Z,2.20
2018-11-21T13:28:24.589Z,2.20
2018-11-21T13:31:10.335Z,2.20
2018-11-21T13:33:57.656Z,2.20
2018-11-21T13:36:43.351Z,2.30
2018-11-21T13:39:30.800Z,2.30
2018-11-21T13:42:18.123Z,2.30
2018-11-21T13:45:04.065Z,2.30
2018-11-21T13:47:49.537Z,2.10
2018-11-21T13:50:42.505Z,2.00
2018-11-21T13:53:28.268Z,2.00
2018-11-21T13:55:56.348Z,1.90
2018-11-21T13:58:24.453Z,1.80
2018-11-21T14:00:52.783Z,1.70
2018-11-21T14:03:20.871Z,1.70
2018-11-21T14:05:48.970Z,1.70
2018-11-21T14:08:17.061Z,1.70
2018-11-21T14:10:45.163Z,1.70
2018-11-21T14:13:13.272Z,1.80
2018-11-21T14:15:41.374Z,1.80
2018-11-21T14:18:09.442Z,1.80
2018-11-21T14:20:37.529Z,1.70
2018-11-21T14:23:05.693Z,1.70
2018-11-21T14:25:34.036Z,1.70
2018-11-21T14:28:02.101Z,1.70
2018-11-21T14:30:30.192Z,1.60
2018-11-21T14:32:58.278Z,1.60
2018-11-21T14:35:26.370Z,1.60
2018-11-21T14:37:55.028Z,1.60
2018-11-21T14:40:23.100Z,1.60
2018-11-21T14:42:51.183Z,1.60
2018-11-21T14:45:19.757Z,1.60
2018-11-21T14:47:50.121Z,1.60
2018-11-21T14:50:20.741Z,1.60
2018-11-21T14:52:49.113Z,1.70
2018-11-21T14:55:17.213Z,1.60
2018-11-21T14:57:45.373Z,1.60
2018-11-21T15:00:16.163Z,1.60
2018-11-21T15:02:44.403Z,1.60
2018-11-21T15:05:13.032Z,1.60
2018-11-21T15:07:41.996Z,1.50
2018-11-21T15:10:10.575Z,1.50
2018-11-21T15:12:38.659Z,1.50
2018-11-21T15:15:09.544Z,1.50
2018-11-21T15:17:37.634Z,1.60
2018-11-21T15:20:08.343Z,1.60
2018-11-21T15:22:36.554Z,1.50
2018-11-21T15:25:05.988Z,1.50
2018-11-21T15:27:34.188Z,1.60
2018-11-21T15:30:02.233Z,1.50
2018-11-21T15:32:30.570Z,1.40
2018-11-21T15:34:59.200Z,1.40
2018-11-21T15:37:27.543Z,1.50
2018-11-21T15:39:55.628Z,1.50
2018-11-21T15:42:23.718Z,1.50
2018-11-21T15:44:51.813Z,1.50
2018-11-21T15:47:19.933Z,1.50
2018-11-21T15:49:48.026Z,1.60
2018-11-21T15:52:16.363Z,1.40
2018-11-21T15:54:44.446Z,1.40
2018-11-21T15:57:12.751Z,1.30
2018-11-21T15:59:40.828Z,1.40
2018-11-21T16:02:08.918Z,1.40
2018-11-21T16:04:37.269Z,1.40
2018-11-21T16:07:05.618Z,1.40
2018-11-21T16:09:33.703Z,1.40
2018-11-21T16:12:01.810Z,1.40
2018-11-21T16:14:29.895Z,1.40
2018-11-21T16:16:57.985Z,1.40
2018-11-21T16:19:26.353Z,1.30
2018-11-21T16:21:54.436Z,1.40
2018-11-21T16:24:22.542Z,1.30
2018-11-21T16:26:50.628Z,1.40
2018-11-21T16:29:18.726Z,1.40
2018-11-21T16:31:47.054Z,1.40
2018-11-21T16:34:15.129Z,1.40
2018-11-21T16:36:43.205Z,1.50
2018-11-21T16:39:12.268Z,1.40
2018-11-21T16:41:40.357Z,1.40
2018-11-21T16:44:08.484Z,1.40
2018-11-21T16:46:36.563Z,1.30
2018-11-21T16:49:05.021Z,1.40
2018-11-21T16:51:33.152Z,1.50
2018-11-21T16:54:01.385Z,1.50
2018-11-21T16:56:29.556Z,1.50
2018-11-21T16:58:57.670Z,1.50
2018-11-21T17:01:25.737Z,1.50
2018-11-21T17:03:54.160Z,1.50
2018-11-21T17:06:22.255Z,1.50
2018-11-21T17:08:50.367Z,1.50
2018-11-21T17:11:18.457Z,1.50
2018-11-21T17:13:46.541Z,1.50
2018-11-21T17:16:15.171Z,1.50
2018-11-21T17:18:43.244Z,1.40
2018-11-21T17:21:11.359Z,1.40
2018-11-21T17:23:39.435Z,1.40
2018-11-21T17:26:07.541Z,1.40
2018-11-21T17:28:35.886Z,1.40
2018-11-21T17:31:03.979Z,1.40
2018-11-21T17:33:32.332Z,1.40
2018-11-21T17:36:00.469Z,1.30
2018-11-21T17:38:33.434Z,1.30
2018-11-21T17:40:56.627Z,1.40
2018-11-21T17:43:24.697Z,1.40
2018-11-21T17:45:52.817Z,1.40
2018-11-21T17:48:21.149Z,1.40
2018-11-21T17:50:49.516Z,1.40
2018-11-21T17:53:17.830Z,1.40
2018-11-21T17:55:45.897Z,1.50
2018-11-21T17:58:13.974Z,1.40
2018-11-21T18:00:42.346Z,1.40
2018-11-21T18:03:10.917Z,1.40
2018-11-21T18:05:40.382Z,1.40
2018-11-21T18:08:08.465Z,1.40
2018-11-21T18:10:37.996Z,1.40
2018-11-21T18:13:06.351Z,1.50
2018-11-21T18:15:34.447Z,1.60
2018-11-21T18:18:02.644Z,1.60
2018-11-21T18:20:30.976Z,1.60
2018-11-21T18:22:59.131Z,1.60
2018-11-21T18:25:29.073Z,1.60
2018-11-21T18:27:57.674Z,1.60
2018-11-21T18:30:26.019Z,1.60
2018-11-21T18:32:54.157Z,1.60
2018-11-21T18:35:23.089Z,1.60
2018-11-21T18:37:51.351Z,1.70
2018-11-21T18:40:21.070Z,1.60
2018-11-21T18:42:49.318Z,1.60
2018-11-21T18:45:26.024Z,1.60
2018-11-21T18:47:54.166Z,1.60
2018-11-21T18:50:22.565Z,1.60
2018-11-21T18:52:52.007Z,1.60
2018-11-21T18:55:22.302Z,1.60
2018-11-21T18:58:29.983Z,1.60
2018-11-21T19:00:58.126Z,1.60
2018-11-21T19:03:26.234Z,1.60
2018-11-21T19:05:54.485Z,1.60
2018-11-21T19:08:22.652Z,1.60
2018-11-21T19:10:51.363Z,1.60
2018-11-21T19:13:19.676Z,1.60
2018-11-21T19:15:48.432Z,1.60
2018-11-21T19:18:16.542Z,1.70
2018-11-21T19:20:44.647Z,1.60
2018-11-21T19:23:12.859Z,1.70
2018-11-21T19:25:40.969Z,1.60
2018-11-21T19:28:09.070Z,1.60
2018-11-21T19:30:37.147Z,1.60
2018-11-21T19:33:05.601Z,1.60
2018-11-21T19:35:33.960Z,1.60
2018-11-21T19:38:02.372Z,1.60
2018-11-21T19:40:30.452Z,1.60
2018-11-21T19:42:58.549Z,1.60
2018-11-21T19:45:26.643Z,1.70
2018-11-21T19:47:54.746Z,1.60
2018-11-21T19:50:22.929Z,1.60
2018-11-21T19:52:51.529Z,1.70
2018-11-21T19:55:21.610Z,1.70
2018-11-21T19:57:49.915Z,1.70
2018-11-21T20:00:20.073Z,1.70
2018-11-21T20:02:48.482Z,1.60
2018-11-21T20:05:16.584Z,1.70
2018-11-21T20:07:44.669Z,1.60
2018-11-21T20:10:13.810Z,1.60
2018-11-21T20:12:42.328Z,1.60
2018-11-21T20:15:13.098Z,1.60
2018-11-21T20:17:42.300Z,1.60
2018-11-21T20:20:12.832Z,1.60
2018-11-21T20:22:41.157Z,1.60
2018-11-21T20:25:10.681Z,1.60
2018-11-21T20:27:38.781Z,1.60
2018-11-21T20:30:10.277Z,1.60
2018-11-21T20:32:38.744Z,1.60
2018-11-21T20:35:08.034Z,1.60
2018-11-21T20:37:35.982Z,1.50
2018-11-21T20:40:04.952Z,1.50
2018-11-21T20:42:33.152Z,1.50
2018-11-21T20:45:01.221Z,1.60
2018-11-21T20:47:29.355Z,1.60
2018-11-21T20:49:57.469Z,1.60
2018-11-21T20:52:25.592Z,1.60
2018-11-21T20:54:53.672Z,1.60
2018-11-21T20:57:21.798Z,1.60
2018-11-21T20:59:49.926Z,1.60
2018-11-21T21:02:18.104Z,1.70
2018-11-21T21:04:46.460Z,1.60
2018-11-21T21:07:14.571Z,1.60
2018-11-21T21:09:42.657Z,1.60
2018-11-21T21:12:10.817Z,1.60
2018-11-21T21:14:39.142Z,1.60
2018-11-21T21:17:07.261Z,1.60
2018-11-21T21:19:35.622Z,1.60
2018-11-21T21:22:03.695Z,1.50
2018-11-21T21:24:31.797Z,1.60
2018-11-21T21:27:00.133Z,1.60
2018-11-21T21:29:28.223Z,1.50
2018-11-21T21:31:56.361Z,1.50
2018-11-21T21:34:24.409Z,1.50
2018-11-21T21:36:52.690Z,1.40
2018-11-21T21:39:21.008Z,1.50
2018-11-21T21:41:49.102Z,1.40
2018-11-21T21:44:17.189Z,1.40
2018-11-21T21:46:45.558Z,1.50
2018-11-21T21:49:13.638Z,1.50
2018-11-21T21:51:41.790Z,1.60
2018-11-21T21:54:09.853Z,1.60
2018-11-21T21:56:37.936Z,1.70
2018-11-21T21:59:06.086Z,1.50
2018-11-21T22:01:34.204Z,1.60
2018-11-21T22:04:02.800Z,1.60
2018-11-21T22:06:31.227Z,1.60
2018-11-21T22:08:59.310Z,1.60
2018-11-21T22:11:27.392Z,1.70
2018-11-21T22:13:55.468Z,1.60
2018-11-21T22:16:24.139Z,1.70
2018-11-21T22:18:56.783Z,1.60
2018-11-21T22:21:24.945Z,1.60
2018-11-21T22:23:53.288Z,1.70
2018-11-21T22:26:21.390Z,1.70
2018-11-21T22:28:49.479Z,1.70
2018-11-21T22:31:17.571Z,1.70
2018-11-21T22:33:45.666Z,1.70
2018-11-21T22:36:14.012Z,1.70
2018-11-21T22:38:42.413Z,1.60
2018-11-21T22:41:10.468Z,1.50
2018-11-21T22:43:38.637Z,1.60
2018-11-21T22:46:06.767Z,1.70
2018-11-21T22:48:34.879Z,1.80
2018-11-21T22:51:03.230Z,1.80
2018-11-21T22:53:31.306Z,1.70
2018-11-21T22:55:59.397Z,1.60
2018-11-21T22:58:27.512Z,1.70
2018-11-21T23:00:55.580Z,1.50
2018-11-21T23:03:23.680Z,1.60
2018-11-21T23:05:51.823Z,1.60
2018-11-21T23:08:19.928Z,1.60
2018-11-21T23:10:48.077Z,1.60
2018-11-21T23:13:16.236Z,1.70
2018-11-21T23:15:44.295Z,1.70
2018-11-21T23:18:12.380Z,1.70
2018-11-21T23:20:40.457Z,1.70
2018-11-21T23:23:08.550Z,1.80
2018-11-21T23:25:36.689Z,1.70
2018-11-21T23:28:05.164Z,1.70
2018-11-21T23:30:33.484Z,1.70
2018-11-21T23:33:01.783Z,1.70
2018-11-21T23:35:29.842Z,1.70
2018-11-21T23:37:57.922Z,1.70
2018-11-21T23:40:25.984Z,1.80
2018-11-21T23:42:54.350Z,1.80
2018-11-21T23:45:22.400Z,1.70
2018-11-21T23:47:50.447Z,1.80
2018-11-21T23:50:19.072Z,1.80
2018-11-21T23:52:47.123Z,1.80
2018-11-21T23:55:17.092Z,1.80
2018-11-21T23:57:45.444Z,1.80
